createdAt,value
2022-12-31T00:00:24.366Z,15.800000
2022-12-31T00:05:26.430Z,17.000000
2022-12-31T00:10:29.807Z,19.333333
2022-12-31T00:15:32.983Z,24.000000
2022-12-31T00:20:35.932Z,26.000000
2022-12-31T00:25:18.861Z,30.000000
2022-12-31T00:30:21.897Z,26.400000
2022-12-31T00:35:25.675Z,21.000000
2022-12-31T00:40:28.737Z,26.666667
2022-12-31T00:45:31.744Z,38.000000
2022-12-31T00:50:34.923Z,33.666667
2022-12-31T00:55:18.331Z,25.000000
2022-12-31T01:00:19.844Z,25.000000
2022-12-31T01:05:22.335Z,25.000000
2022-12-31T01:10:25.447Z,22.666667
2022-12-31T01:15:28.528Z,18.000000
2022-12-31T01:20:31.576Z,18.333333
2022-12-31T01:25:34.039Z,19.000000
2022-12-31T01:30:17.218Z,22.000000
2022-12-31T01:35:19.215Z,28.000000
2022-12-31T01:40:22.134Z,24.071429
2022-12-31T01:45:26.665Z,17.000000
2022-12-31T01:50:28.688Z,17.333333
2022-12-31T01:55:32.297Z,18.000000
2022-12-31T02:00:16.566Z,19.666667
2022-12-31T02:05:19.587Z,23.000000
2022-12-31T02:10:22.345Z,23.357143
2022-12-31T02:15:27.162Z,24.000000
2022-12-31T02:20:30.075Z,22.333333
2022-12-31T02:25:33.875Z,19.000000
2022-12-31T02:30:36.025Z,19.333333
2022-12-31T02:35:18.925Z,20.000000
2022-12-31T02:40:21.699Z,19.600000
2022-12-31T02:45:24.924Z,19.000000
2022-12-31T02:50:28.693Z,19.333333
2022-12-31T02:55:30.137Z,20.000000
2022-12-31T03:00:26.739Z,19.000000
2022-12-31T03:05:16.369Z,17.000000
2022-12-31T03:10:19.624Z,17.400000
2022-12-31T03:15:23.422Z,18.000000
2022-12-31T03:20:26.013Z,18.000000
2022-12-31T03:25:28.393Z,18.000000
2022-12-31T03:30:31.996Z,19.000000
2022-12-31T03:35:37.198Z,21.000000
2022-12-31T03:40:19.077Z,21.000000
2022-12-31T03:45:22.143Z,21.000000
2022-12-31T03:50:25.764Z,21.357143
2022-12-31T03:55:28.896Z,22.000000
2022-12-31T04:00:31.841Z,21.333333
2022-12-31T04:05:34.666Z,20.000000
2022-12-31T04:10:17.409Z,20.333333
2022-12-31T04:15:20.114Z,21.000000
2022-12-31T04:20:24.371Z,26.714286
2022-12-31T04:25:26.853Z,37.000000
2022-12-31T04:30:30.238Z,40.000000
2022-12-31T04:35:32.883Z,46.000000
2022-12-31T04:40:16.172Z,44.333333
2022-12-31T04:45:19.831Z,41.000000
2022-12-31T04:50:22.890Z,58.857143
2022-12-31T04:55:25.680Z,91.000000
2022-12-31T05:00:29.684Z,72.000000
2022-12-31T05:05:31.944Z,34.000000
2022-12-31T05:10:35.851Z,33.000000
2022-12-31T05:15:17.975Z,31.000000
2022-12-31T05:20:21.046Z,31.000000
2022-12-31T05:25:24.855Z,31.000000
2022-12-31T05:30:27.415Z,29.666667
2022-12-31T05:35:30.619Z,27.000000
2022-12-31T05:40:33.614Z,25.000000
2022-12-31T05:45:16.822Z,21.000000
2022-12-31T05:50:20.016Z,21.400000
2022-12-31T05:55:22.657Z,22.000000
2022-12-31T06:00:25.274Z,21.000000
2022-12-31T06:05:27.798Z,19.000000
2022-12-31T06:10:33.268Z,17.333333
2022-12-31T06:15:36.182Z,14.000000
2022-12-31T06:20:18.309Z,14.333333
2022-12-31T06:25:21.867Z,15.000000
2022-12-31T06:30:25.170Z,14.000000
2022-12-31T06:35:28.115Z,12.000000
2022-12-31T06:40:31.526Z,12.666667
2022-12-31T06:45:34.676Z,14.000000
2022-12-31T06:50:19.773Z,15.000000
2022-12-31T06:55:22.954Z,17.000000
2022-12-31T07:00:27.056Z,18.333333
2022-12-31T07:05:31.635Z,21.000000
2022-12-31T07:10:34.778Z,20.333333
2022-12-31T07:15:19.400Z,19.000000
2022-12-31T07:20:31.292Z,19.714286
2022-12-31T07:25:31.045Z,21.000000
2022-12-31T07:30:26.628Z,20.285714
2022-12-31T07:35:35.255Z,19.000000
2022-12-31T07:40:35.807Z,20.333333
2022-12-31T07:45:18.599Z,23.000000
2022-12-31T07:50:22.933Z,21.928571
2022-12-31T07:55:26.230Z,20.000000
2022-12-31T08:00:29.823Z,21.000000
2022-12-31T08:05:31.776Z,23.000000
2022-12-31T08:10:34.977Z,21.333333
2022-12-31T08:15:17.985Z,18.000000
2022-12-31T08:20:21.428Z,18.000000
2022-12-31T08:25:24.679Z,18.000000
2022-12-31T08:30:27.761Z,18.000000
2022-12-31T08:35:30.943Z,18.000000
2022-12-31T08:40:34.432Z,18.666667
2022-12-31T08:45:16.446Z,20.000000
2022-12-31T08:50:19.615Z,18.800000
2022-12-31T08:55:22.233Z,17.000000
2022-12-31T09:00:25.148Z,17.000000
2022-12-31T09:05:30.753Z,17.000000
2022-12-31T09:10:32.388Z,15.000000
2022-12-31T09:15:36.523Z,11.000000
2022-12-31T09:20:18.088Z,13.000000
2022-12-31T09:25:21.182Z,17.000000
2022-12-31T09:30:23.882Z,15.214286
2022-12-31T09:35:26.737Z,12.000000
2022-12-31T09:40:29.165Z,11.666667
2022-12-31T09:45:32.487Z,11.000000
2022-12-31T09:50:35.965Z,10.000000
2022-12-31T09:55:19.680Z,8.000000
2022-12-31T10:00:21.696Z,7.200000
2022-12-31T10:05:24.969Z,6.000000
2022-12-31T10:10:27.830Z,5.666667
2022-12-31T10:15:30.379Z,5.000000
2022-12-31T10:20:33.439Z,5.000000
2022-12-31T10:25:16.726Z,5.000000
2022-12-31T10:30:18.516Z,5.000000
2022-12-31T10:35:21.249Z,5.000000
2022-12-31T10:40:24.649Z,5.000000
2022-12-31T10:45:28.207Z,5.000000
2022-12-31T10:50:31.488Z,5.000000
2022-12-31T10:55:34.475Z,5.000000
2022-12-31T11:00:17.641Z,4.666667
2022-12-31T11:05:22.580Z,4.000000
2022-12-31T11:10:24.741Z,4.357143
2022-12-31T11:15:28.696Z,5.000000
2022-12-31T11:20:31.982Z,4.666667
2022-12-31T11:25:34.539Z,4.000000
2022-12-31T11:30:17.501Z,4.000000
2022-12-31T11:35:22.294Z,4.000000
2022-12-31T11:40:25.677Z,4.666667
2022-12-31T11:45:28.843Z,6.000000
2022-12-31T11:50:32.656Z,6.000000
2022-12-31T11:55:17.016Z,6.000000
2022-12-31T12:00:22.869Z,6.000000
2022-12-31T12:05:25.247Z,6.000000
2022-12-31T12:10:35.665Z,6.333333
2022-12-31T12:15:31.649Z,7.000000
2022-12-31T12:20:35.231Z,7.000000
2022-12-31T12:25:20.277Z,7.000000
2022-12-31T12:30:23.772Z,7.357143
2022-12-31T12:35:29.597Z,8.000000
2022-12-31T12:40:34.171Z,8.000000
2022-12-31T12:45:34.959Z,8.000000
2022-12-31T12:50:18.785Z,8.333333
2022-12-31T12:55:21.576Z,9.000000
2022-12-31T13:00:25.529Z,9.000000
2022-12-31T13:05:28.689Z,9.000000
2022-12-31T13:10:32.093Z,8.000000
2022-12-31T13:15:35.070Z,6.000000
2022-12-31T13:20:17.904Z,6.333333
2022-12-31T13:25:21.629Z,7.000000
2022-12-31T13:30:24.818Z,7.000000
2022-12-31T13:35:28.096Z,7.000000
2022-12-31T13:40:30.532Z,7.333333
2022-12-31T13:45:33.162Z,8.000000
2022-12-31T13:50:36.069Z,8.666667
2022-12-31T13:55:18.175Z,10.000000
2022-12-31T14:00:21.163Z,9.600000
2022-12-31T14:05:25.030Z,9.000000
2022-12-31T14:10:27.097Z,8.666667
2022-12-31T14:15:30.386Z,8.000000
2022-12-31T14:20:33.320Z,7.000000
2022-12-31T14:25:16.228Z,5.000000
2022-12-31T14:30:20.657Z,5.400000
2022-12-31T14:35:22.862Z,6.000000
2022-12-31T14:40:25.666Z,5.666667
2022-12-31T14:45:28.392Z,5.000000
2022-12-31T14:50:30.808Z,5.000000
2022-12-31T14:55:34.155Z,5.000000
2022-12-31T15:00:16.760Z,5.333333
2022-12-31T15:05:19.667Z,6.000000
2022-12-31T15:10:23.820Z,6.000000
2022-12-31T15:15:28.067Z,6.000000
2022-12-31T15:20:31.474Z,7.000000
2022-12-31T15:25:40.380Z,9.000000
2022-12-31T15:30:16.904Z,7.666667
2022-12-31T15:35:20.749Z,5.000000
2022-12-31T15:40:24.544Z,5.000000
2022-12-31T15:45:28.359Z,5.000000
2022-12-31T15:50:30.123Z,6.333333
2022-12-31T15:55:33.200Z,9.000000
2022-12-31T16:00:16.913Z,8.333333
2022-12-31T16:05:19.763Z,7.000000
2022-12-31T16:10:23.101Z,8.071429
2022-12-31T16:15:27.264Z,10.000000
2022-12-31T16:20:28.936Z,10.000000
2022-12-31T16:25:33.333Z,10.000000
2022-12-31T16:30:16.222Z,10.333333
2022-12-31T16:35:23.632Z,11.000000
2022-12-31T16:40:23.897Z,10.285714
2022-12-31T16:45:27.674Z,9.000000
2022-12-31T16:50:31.467Z,9.666667
2022-12-31T16:55:36.082Z,11.000000
2022-12-31T17:00:20.685Z,9.000000
2022-12-31T17:05:22.987Z,9.000000
2022-12-31T17:10:27.809Z,8.666667
2022-12-31T17:15:30.866Z,8.000000
2022-12-31T17:20:32.940Z,6.666667
2022-12-31T17:25:16.435Z,4.000000
2022-12-31T17:30:20.326Z,4.400000
2022-12-31T17:35:23.914Z,5.000000
2022-12-31T17:40:50.342Z,4.666667
2022-12-31T17:45:32.345Z,4.000000
2022-12-31T17:50:48.924Z,4.000000
2022-12-31T17:55:18.938Z,4.000000
2022-12-31T18:00:21.391Z,5.200000
2022-12-31T18:05:26.029Z,7.000000
2022-12-31T18:10:31.093Z,7.000000
2022-12-31T18:15:33.905Z,7.000000
2022-12-31T18:20:16.098Z,6.666667
2022-12-31T18:25:20.712Z,6.000000
2022-12-31T18:30:22.914Z,5.642857
2022-12-31T18:35:58.042Z,5.000000
2022-12-31T18:40:28.889Z,5.666667
2022-12-31T18:45:33.748Z,7.000000
2022-12-31T18:50:16.970Z,6.666667
2022-12-31T18:55:19.720Z,6.000000
2022-12-31T19:00:23.782Z,6.357143
2022-12-31T19:05:28.942Z,7.000000
2022-12-31T19:10:30.205Z,6.666667
2022-12-31T19:15:33.988Z,6.000000
2022-12-31T19:20:16.456Z,6.333333
2022-12-31T19:25:20.421Z,7.000000
2022-12-31T19:30:22.875Z,6.642857
2022-12-31T19:35:26.778Z,6.000000
2022-12-31T19:40:29.142Z,6.000000
2022-12-31T19:45:32.817Z,6.000000
2022-12-31T19:50:37.064Z,6.666667
2022-12-31T19:55:19.956Z,8.000000
2022-12-31T20:00:23.241Z,7.285714
2022-12-31T20:05:27.325Z,6.000000
2022-12-31T20:10:31.393Z,6.000000
2022-12-31T20:15:34.137Z,6.000000
2022-12-31T20:20:16.896Z,6.666667
2022-12-31T20:25:19.809Z,8.000000
2022-12-31T20:30:23.352Z,7.285714
2022-12-31T20:35:26.636Z,6.000000
2022-12-31T20:40:29.652Z,6.000000
2022-12-31T20:45:34.963Z,6.000000
2022-12-31T20:50:19.128Z,6.000000
2022-12-31T20:55:22.680Z,6.000000
2022-12-31T21:00:26.004Z,6.000000
2022-12-31T21:05:30.000Z,6.000000
2022-12-31T21:10:33.537Z,6.000000
2022-12-31T21:15:35.385Z,6.000000
2022-12-31T21:20:18.414Z,6.000000
2022-12-31T21:25:23.292Z,6.000000
2022-12-31T21:30:27.835Z,6.000000
2022-12-31T21:35:43.303Z,6.000000
2022-12-31T21:40:35.568Z,6.333333
2022-12-31T21:45:18.752Z,7.000000
2022-12-31T21:50:20.944Z,6.600000
2022-12-31T21:55:24.308Z,6.000000
2022-12-31T22:00:43.910Z,6.000000
2022-12-31T22:05:31.462Z,6.000000
2022-12-31T22:10:37.211Z,6.000000
2022-12-31T22:15:17.511Z,6.000000
2022-12-31T22:20:28.975Z,6.400000
2022-12-31T22:25:24.295Z,7.000000
2022-12-31T22:30:28.157Z,7.000000
2022-12-31T22:35:32.440Z,7.000000
2022-12-31T22:40:16.561Z,6.666667
2022-12-31T22:45:18.746Z,6.000000
2022-12-31T22:50:22.279Z,6.357143
2022-12-31T22:55:25.644Z,7.000000
2022-12-31T23:00:29.951Z,6.333333
2022-12-31T23:05:34.152Z,5.000000
2022-12-31T23:10:17.389Z,6.000000
2022-12-31T23:15:21.547Z,8.000000
2022-12-31T23:20:25.816Z,8.357143
2022-12-31T23:25:29.859Z,9.000000
2022-12-31T23:30:33.676Z,8.333333
2022-12-31T23:35:16.909Z,7.000000
2022-12-31T23:40:22.173Z,6.600000
2022-12-31T23:45:24.982Z,6.000000
2022-12-31T23:50:26.349Z,6.333333
2022-12-31T23:55:31.120Z,7.000000
